Time;durP1;ratioP1;P1;durP2;ratioP2;P2;SDS_P1;SDS_P2;PMS_P1;PMS_P2;Temp;Humidity;BMP_temperature;BMP_pressure;BME280_temperature;BME280_humidity;BME280_pressure;Samples;Min_cycle;Max_cycle;Signal;HPM_P1;HPM_P2
2021/07/13 00:02:08;;;;;;;13.13;11.82;;;18.60;99.90;;;;;;4993804;28;20060;-86
2021/07/13 00:04:35;;;;;;;12.75;11.45;;;18.60;99.90;;;;;;5001641;28;20035;-84
2021/07/13 00:07:00;;;;;;;13.15;11.85;;;18.60;99.90;;;;;;4985435;28;20491;-85
2021/07/13 00:09:28;;;;;;;13.73;12.32;;;18.60;99.90;;;;;;4993467;28;20062;-86
2021/07/13 00:11:56;;;;;;;13.27;11.98;;;18.60;99.90;;;;;;4977026;28;20054;-85
2021/07/13 00:14:22;;;;;;;14.23;12.80;;;18.60;99.90;;;;;;4991632;28;20031;-86
2021/07/13 00:16:48;;;;;;;14.07;12.77;;;18.60;99.90;;;;;;4977313;28;20034;-86
2021/07/13 00:19:14;;;;;;;14.40;12.90;;;18.60;99.90;;;;;;4991649;28;20026;-84
2021/07/13 00:21:39;;;;;;;14.10;12.80;;;18.70;99.90;;;;;;4991770;28;20046;-85
2021/07/13 00:24:07;;;;;;;13.77;12.48;;;18.70;99.90;;;;;;4976477;28;20038;-86
2021/07/13 00:26:33;;;;;;;14.10;12.80;;;18.70;99.90;;;;;;4991369;28;20093;-85
2021/07/13 00:28:59;;;;;;;17.23;15.52;;;18.70;99.90;;;;;;4976528;28;20042;-86
2021/07/13 00:31:25;;;;;;;14.68;13.13;;;18.70;99.90;;;;;;4976549;28;20047;-85
2021/07/13 00:33:51;;;;;;;15.30;13.82;;;18.60;99.90;;;;;;4976880;28;20043;-84
2021/07/13 00:36:17;;;;;;;16.35;14.75;;;18.60;99.90;;;;;;4978075;28;20070;-85
2021/07/13 00:38:44;;;;;;;15.50;13.90;;;18.60;99.90;;;;;;4992722;28;20039;-86
2021/07/13 00:41:09;;;;;;;15.15;13.65;;;18.60;99.90;;;;;;4993607;28;20107;-85
2021/07/13 00:43:35;;;;;;;15.52;14.02;;;18.60;99.90;;;;;;4999716;28;20057;-82
2021/07/13 00:46:01;;;;;;;16.40;14.85;;;18.60;99.90;;;;;;4995668;28;20031;-85
2021/07/13 00:48:26;;;;;;;16.58;14.98;;;18.70;99.90;;;;;;4991927;28;20090;-85
2021/07/13 00:50:53;;;;;;;15.98;14.48;;;18.70;99.90;;;;;;4978128;28;20047;-83
2021/07/13 00:53:21;;;;;;;15.73;14.23;;;18.70;99.90;;;;;;4980503;28;20174;-85
2021/07/13 00:55:46;;;;;;;17.25;15.55;;;18.70;99.90;;;;;;4995943;28;20023;-85
2021/07/13 00:58:12;;;;;;;16.55;14.82;;;18.70;99.90;;;;;;4980783;28;20289;-84
2021/07/13 01:00:38;;;;;;;16.30;14.70;;;18.70;99.90;;;;;;4995605;28;20035;-85
2021/07/13 01:03:05;;;;;;;16.50;14.82;;;18.70;99.90;;;;;;4979762;28;20074;-84
2021/07/13 01:05:43;;;;;;;16.77;15.07;;;18.70;99.90;;;;;;4995707;28;20031;-83
2021/07/13 01:08:30;;;;;;;15.57;14.07;;;18.80;99.90;;;;;;4996882;28;20046;-84
2021/07/13 01:11:08;;;;;;;15.52;14.02;;;18.80;99.90;;;;;;4980194;28;20073;-84
2021/07/13 01:14:06;;;;;;;15.15;13.73;;;18.80;99.90;;;;;;4978206;28;20038;-84
2021/07/13 01:16:36;;;;;;;14.00;12.60;;;18.80;99.90;;;;;;4994804;28;20397;-84
2021/07/13 01:19:31;;;;;;;15.13;13.68;;;18.80;99.90;;;;;;4994780;28;20054;-85
2021/07/13 01:22:08;;;;;;;15.15;12.73;;;18.80;99.90;;;;;;4976909;28;20047;-85
2021/07/13 01:24:58;;;;;;;13.98;12.60;;;18.80;99.90;;;;;;4978880;28;20070;-84
2021/07/13 01:27:45;;;;;;;14.35;12.88;;;18.80;99.90;;;;;;4979291;28;20035;-83
2021/07/13 01:30:32;;;;;;;13.70;12.35;;;18.70;99.90;;;;;;4980318;28;20608;-85
2021/07/13 01:33:12;;;;;;;14.65;13.15;;;18.80;99.90;;;;;;4982320;28;20098;-84
2021/07/13 01:36:06;;;;;;;13.48;12.07;;;18.80;99.90;;;;;;5005394;28;20062;-84
2021/07/13 01:38:41;;;;;;;13.77;12.38;;;18.80;99.90;;;;;;4980881;28;20031;-85
2021/07/13 01:41:09;;;;;;;13.55;12.15;;;18.80;99.90;;;;;;4992796;28;20043;-84
2021/07/13 01:43:38;;;;;;;13.07;11.77;;;18.80;99.90;;;;;;4963560;28;20031;-84
2021/07/13 01:46:05;;;;;;;14.25;12.85;;;18.80;99.90;;;;;;4995514;28;20489;-85
2021/07/13 01:48:34;;;;;;;14.63;13.13;;;18.80;99.90;;;;;;4993361;28;20054;-85
2021/07/13 01:51:02;;;;;;;14.38;12.50;;;18.80;99.90;;;;;;4978588;28;20047;-83
2021/07/13 01:53:29;;;;;;;13.80;12.45;;;18.90;99.90;;;;;;4993712;28;20195;-84
2021/07/13 01:55:56;;;;;;;13.35;12.05;;;18.80;99.90;;;;;;4978505;28;20137;-81
2021/07/13 01:58:24;;;;;;;14.05;12.38;;;18.80;99.90;;;;;;4993354;28;20035;-85
2021/07/13 02:00:54;;;;;;;14.35;12.85;;;18.80;99.90;;;;;;4994136;28;20039;-86
2021/07/13 02:03:23;;;;;;;14.32;12.85;;;18.80;99.90;;;;;;4977984;28;20035;-83
2021/07/13 02:05:49;;;;;;;14.75;13.25;;;18.90;99.90;;;;;;4976551;28;20157;-84
2021/07/13 02:08:15;;;;;;;13.40;12.10;;;18.80;99.90;;;;;;4977562;28;20130;-86
2021/07/13 02:10:42;;;;;;;13.55;12.15;;;18.80;99.90;;;;;;4979366;28;20106;-85
2021/07/13 02:13:10;;;;;;;13.00;11.75;;;18.80;99.90;;;;;;4995348;28;20481;-85
2021/07/13 02:15:37;;;;;;;13.88;12.48;;;18.80;99.90;;;;;;4976940;28;20125;-84
2021/07/13 02:18:03;;;;;;;14.27;12.77;;;18.90;99.90;;;;;;4992266;28;20031;-84
2021/07/13 02:20:30;;;;;;;14.52;13.02;;;18.90;99.90;;;;;;4977720;28;20497;-86
2021/07/13 02:22:55;;;;;;;13.80;12.45;;;18.90;99.90;;;;;;4991932;28;20034;-85
2021/07/13 02:25:21;;;;;;;13.65;12.27;;;18.90;99.90;;;;;;4992588;28;20606;-85
2021/07/13 02:28:15;;;;;;;13.40;11.80;;;18.80;99.90;;;;;;4978896;28;20061;-85
2021/07/13 02:30:46;;;;;;;14.35;12.93;;;18.90;99.90;;;;;;4978740;28;20047;-86
2021/07/13 02:33:20;;;;;;;14.05;12.65;;;18.80;99.90;;;;;;4978077;28;20058;-85
2021/07/13 02:35:50;;;;;;;14.27;12.75;;;18.90;99.90;;;;;;4979945;28;20034;-84
2021/07/13 02:38:18;;;;;;;13.75;12.38;;;18.90;99.90;;;;;;4995202;28;20115;-86
2021/07/13 02:40:46;;;;;;;13.60;12.27;;;18.90;99.90;;;;;;4979586;28;20082;-84
2021/07/13 02:43:12;;;;;;;13.80;12.40;;;18.90;99.90;;;;;;4997255;28;20099;-85
2021/07/13 02:45:40;;;;;;;14.07;12.63;;;18.90;99.90;;;;;;5001407;28;20035;-85
2021/07/13 02:48:07;;;;;;;13.88;12.48;;;18.90;99.90;;;;;;4995034;28;20073;-85
2021/07/13 02:50:34;;;;;;;13.15;11.50;;;18.90;99.90;;;;;;4979690;28;20066;-84
2021/07/13 02:53:01;;;;;;;13.23;11.93;;;18.90;99.90;;;;;;4994089;28;20043;-85
2021/07/13 02:55:29;;;;;;;13.32;11.93;;;18.80;99.90;;;;;;4978921;28;20031;-85
2021/07/13 02:57:57;;;;;;;12.50;11.23;;;18.80;99.90;;;;;;4979448;28;20035;-85
2021/07/13 03:00:23;;;;;;;13.90;12.40;;;18.80;99.90;;;;;;4979589;28;20118;-84
2021/07/13 03:02:50;;;;;;;14.73;13.13;;;18.80;99.90;;;;;;4979863;28;20038;-84
2021/07/13 03:05:21;;;;;;;13.68;12.32;;;18.80;99.90;;;;;;4984739;28;20079;-82
2021/07/13 03:07:48;;;;;;;13.20;11.80;;;18.90;99.90;;;;;;4985060;28;20505;-86
2021/07/13 03:10:18;;;;;;;14.35;12.85;;;18.80;99.90;;;;;;4979238;28;20070;-86
2021/07/13 03:12:44;;;;;;;14.30;12.90;;;18.80;99.90;;;;;;4993434;28;20535;-86
2021/07/13 03:15:10;;;;;;;14.60;13.00;;;18.80;99.90;;;;;;4993487;28;20035;-85
2021/07/13 03:17:35;;;;;;;13.93;12.52;;;18.80;99.90;;;;;;4978361;28;20066;-85
2021/07/13 03:20:02;;;;;;;14.63;13.20;;;18.80;99.90;;;;;;4993404;28;20058;-85
2021/07/13 03:22:38;;;;;;;14.25;12.75;;;18.80;99.90;;;;;;4977622;28;20491;-85
2021/07/13 03:25:04;;;;;;;13.90;12.52;;;18.80;99.90;;;;;;4993182;28;20035;-86
2021/07/13 03:27:32;;;;;;;14.57;13.07;;;18.80;99.90;;;;;;4976452;28;20476;-85
2021/07/13 03:29:58;;;;;;;12.98;11.65;;;18.80;99.90;;;;;;4992902;28;20038;-85
2021/07/13 03:32:26;;;;;;;13.80;12.30;;;18.80;99.90;;;;;;4993620;28;20058;-86
2021/07/13 03:34:53;;;;;;;13.38;12.02;;;18.80;99.90;;;;;;4992881;28;20039;-86
2021/07/13 03:37:19;;;;;;;13.07;11.77;;;18.90;99.90;;;;;;4977628;28;20035;-86
2021/07/13 03:39:49;;;;;;;14.48;12.35;;;18.90;99.90;;;;;;4976066;28;20050;-86
2021/07/13 03:42:18;;;;;;;13.50;12.10;;;18.90;99.90;;;;;;4978320;28;20046;-86
2021/07/13 03:44:44;;;;;;;14.30;12.80;;;19.00;99.90;;;;;;4992955;28;20400;-84
2021/07/13 03:47:14;;;;;;;15.05;13.45;;;18.90;99.90;;;;;;4992638;28;20054;-84
2021/07/13 03:49:41;;;;;;;14.45;12.95;;;18.90;99.90;;;;;;4976362;28;20058;-85
2021/07/13 03:52:07;;;;;;;13.57;12.25;;;18.90;99.90;;;;;;4977168;28;20058;-84
2021/07/13 03:54:33;;;;;;;13.90;12.50;;;18.90;99.90;;;;;;4992737;28;20038;-84
2021/07/13 03:56:59;;;;;;;13.32;11.98;;;19.00;99.90;;;;;;4977750;28;20031;-84
2021/07/13 03:59:25;;;;;;;14.55;13.05;;;18.90;99.90;;;;;;4991951;28;20027;-84
2021/07/13 04:01:51;;;;;;;16.20;13.02;;;18.90;99.90;;;;;;4976530;28;20035;-85
2021/07/13 04:04:16;;;;;;;14.43;12.88;;;18.90;99.90;;;;;;4991811;28;20126;-85
2021/07/13 04:06:42;;;;;;;14.02;12.63;;;18.90;99.90;;;;;;4992925;28;20465;-85
2021/07/13 04:09:08;;;;;;;14.52;13.13;;;18.90;99.90;;;;;;4976880;28;20073;-86
2021/07/13 04:11:34;;;;;;;15.27;13.68;;;18.90;99.90;;;;;;4984506;28;20055;-86
2021/07/13 04:14:00;;;;;;;15.23;13.73;;;18.90;99.90;;;;;;4992821;28;20041;-86
2021/07/13 04:16:25;;;;;;;15.07;13.57;;;18.90;99.90;;;;;;4981247;28;20038;-86
2021/07/13 04:18:51;;;;;;;13.68;12.27;;;18.90;99.90;;;;;;5001829;28;20485;-86
2021/07/13 04:21:17;;;;;;;14.93;13.43;;;18.90;99.90;;;;;;4988835;28;20042;-85
2021/07/13 04:23:42;;;;;;;14.80;13.25;;;18.90;99.90;;;;;;4990412;28;20039;-85
2021/07/13 04:26:08;;;;;;;14.35;12.95;;;18.90;99.90;;;;;;5003951;28;20094;-86
2021/07/13 04:28:35;;;;;;;16.40;14.70;;;19.00;99.90;;;;;;4988365;28;20061;-85
2021/07/13 04:31:02;;;;;;;15.65;14.02;;;19.00;99.90;;;;;;5002860;28;20043;-86
2021/07/13 04:33:28;;;;;;;16.15;13.93;;;19.00;99.90;;;;;;5004589;28;20031;-85
2021/07/13 04:35:54;;;;;;;17.35;15.43;;;19.00;99.90;;;;;;4988898;28;20030;-83
2021/07/13 04:38:20;;;;;;;22.63;19.92;;;19.00;99.90;;;;;;4998419;28;20038;-85
2021/07/13 04:40:46;;;;;;;22.63;20.27;;;19.00;99.90;;;;;;5011997;28;20111;-85
2021/07/13 04:43:12;;;;;;;19.48;17.52;;;18.90;99.90;;;;;;5011586;28;20047;-87
2021/07/13 04:45:37;;;;;;;20.17;17.85;;;19.00;99.90;;;;;;4991505;28;20050;-85
2021/07/13 04:48:03;;;;;;;19.73;17.67;;;19.00;99.90;;;;;;5001746;28;20034;-86
2021/07/13 04:50:29;;;;;;;19.52;17.42;;;19.00;99.90;;;;;;4991439;28;20039;-84
2021/07/13 04:52:55;;;;;;;19.17;17.05;;;19.00;99.90;;;;;;4992977;28;20196;-88
2021/07/13 04:55:20;;;;;;;20.77;18.58;;;19.00;99.90;;;;;;4994780;28;20344;-86
2021/07/13 04:57:46;;;;;;;21.65;19.35;;;19.00;99.90;;;;;;4993830;28;20031;-86
2021/07/13 05:00:13;;;;;;;23.05;19.88;;;19.00;99.90;;;;;;4998111;28;20043;-87
2021/07/13 05:02:39;;;;;;;23.10;19.00;;;19.00;99.90;;;;;;4975953;28;20051;-88
2021/07/13 05:05:06;;;;;;;21.75;19.45;;;19.00;99.90;;;;;;4991366;28;20377;-87
2021/07/13 05:07:32;;;;;;;22.58;20.17;;;19.00;99.90;;;;;;4985448;28;20113;-87
2021/07/13 05:09:58;;;;;;;22.73;20.20;;;19.00;99.90;;;;;;4974979;28;20078;-86
2021/07/13 05:12:23;;;;;;;25.17;22.50;;;19.00;99.90;;;;;;4987099;28;20564;-86
2021/07/13 05:14:49;;;;;;;26.10;23.38;;;18.90;99.90;;;;;;4987663;28;20039;-88
2021/07/13 05:17:15;;;;;;;23.63;21.08;;;18.90;99.90;;;;;;4989163;28;20054;-86
2021/07/13 05:19:44;;;;;;;24.48;21.88;;;18.90;99.90;;;;;;4988696;28;20493;-86
2021/07/13 05:22:10;;;;;;;21.95;19.65;;;18.90;99.90;;;;;;4973775;28;20034;-85
2021/07/13 05:24:36;;;;;;;22.50;20.13;;;18.90;99.90;;;;;;4990483;28;20069;-85
2021/07/13 05:27:02;;;;;;;25.20;20.83;;;18.90;99.90;;;;;;4973793;28;20027;-86
2021/07/13 05:29:28;;;;;;;23.38;20.88;;;18.90;99.90;;;;;;4987391;28;20046;-87
2021/07/13 05:31:53;;;;;;;23.05;20.55;;;19.00;99.90;;;;;;4984601;28;20387;-88
2021/07/13 05:34:19;;;;;;;28.08;25.00;;;18.90;99.90;;;;;;4990688;28;20054;-85
2021/07/13 05:36:45;;;;;;;27.58;24.60;;;18.90;99.90;;;;;;4975830;28;20035;-81
2021/07/13 05:39:11;;;;;;;23.77;21.20;;;18.90;99.90;;;;;;4963758;28;20038;-85
2021/07/13 05:41:37;;;;;;;24.80;21.50;;;18.90;99.90;;;;;;4980132;28;20055;-86
2021/07/13 05:44:07;;;;;;;25.48;21.27;;;18.90;99.90;;;;;;4995411;28;20035;-87
2021/07/13 05:46:34;;;;;;;25.90;22.88;;;18.90;99.90;;;;;;4988427;28;20034;-87
2021/07/13 05:49:00;;;;;;;26.77;22.92;;;19.00;99.90;;;;;;4978124;28;20055;-86
2021/07/13 05:51:25;;;;;;;26.27;22.23;;;19.00;99.90;;;;;;4979625;28;20074;-86
2021/07/13 05:53:51;;;;;;;27.23;23.55;;;19.00;99.90;;;;;;4987687;28;20073;-85
2021/07/13 05:56:16;;;;;;;29.90;25.17;;;18.90;99.90;;;;;;4980533;28;20058;-84
2021/07/13 05:58:42;;;;;;;27.35;23.35;;;19.00;99.90;;;;;;4996174;28;20040;-88
2021/07/13 06:01:08;;;;;;;30.98;25.80;;;19.00;99.90;;;;;;4973880;28;20130;-87
2021/07/13 06:03:34;;;;;;;29.13;23.52;;;19.00;99.90;;;;;;4996554;28;20046;-88
2021/07/13 06:06:00;;;;;;;29.60;24.00;;;19.00;99.90;;;;;;4999065;28;20031;-88
2021/07/13 06:08:26;;;;;;;30.40;23.52;;;19.10;99.90;;;;;;4997426;28;20034;-87
2021/07/13 06:10:51;;;;;;;28.48;22.83;;;19.10;99.90;;;;;;4972265;29;20114;-87
2021/07/13 06:13:17;;;;;;;30.55;23.92;;;19.10;99.90;;;;;;4981972;28;20556;-87
2021/07/13 06:15:43;;;;;;;30.33;23.70;;;19.20;99.90;;;;;;4980640;28;20027;-88
2021/07/13 06:18:09;;;;;;;28.55;22.95;;;19.20;99.90;;;;;;4979716;28;20042;-89
2021/07/13 06:20:35;;;;;;;31.20;23.92;;;19.20;99.90;;;;;;4995687;28;20027;-86
2021/07/13 06:23:02;;;;;;;33.42;24.98;;;19.20;99.90;;;;;;4994658;28;20374;-86
2021/07/13 06:25:27;;;;;;;32.80;24.92;;;19.30;99.90;;;;;;4994136;28;20026;-87
2021/07/13 06:27:53;;;;;;;33.88;24.75;;;19.30;99.90;;;;;;4977571;28;20031;-85
2021/07/13 06:30:19;;;;;;;37.75;26.95;;;19.30;99.90;;;;;;4979516;28;20051;-86
2021/07/13 06:32:46;;;;;;;34.75;25.13;;;19.30;99.90;;;;;;4994003;28;20063;-87
2021/07/13 06:35:12;;;;;;;37.40;26.73;;;19.30;99.90;;;;;;4979214;28;20038;-84
2021/07/13 06:37:37;;;;;;;38.97;27.42;;;19.30;99.90;;;;;;4993875;28;20433;-85
2021/07/13 06:40:05;;;;;;;41.60;28.45;;;19.30;99.90;;;;;;4994316;28;20043;-85
2021/07/13 06:42:31;;;;;;;41.40;27.27;;;19.30;99.90;;;;;;4979362;28;20113;-86
2021/07/13 06:44:56;;;;;;;38.85;27.98;;;19.40;99.90;;;;;;4992636;28;20077;-86
2021/07/13 06:47:22;;;;;;;36.25;27.38;;;19.30;99.90;;;;;;4993671;28;20030;-85
2021/07/13 06:49:47;;;;;;;37.45;27.27;;;19.30;99.90;;;;;;4978025;28;20050;-86
2021/07/13 06:52:13;;;;;;;37.10;25.38;;;19.40;99.90;;;;;;4977623;28;20062;-87
2021/07/13 06:54:39;;;;;;;33.30;25.67;;;19.40;99.90;;;;;;4993721;28;20070;-87
2021/07/13 06:57:04;;;;;;;35.53;26.25;;;19.40;99.90;;;;;;4979253;28;20500;-88
2021/07/13 06:59:30;;;;;;;37.42;27.60;;;19.40;99.90;;;;;;4975008;28;20063;-87
2021/07/13 07:01:55;;;;;;;36.65;26.95;;;19.40;99.90;;;;;;4974045;28;20051;-86
2021/07/13 07:04:22;;;;;;;39.35;28.55;;;19.40;99.90;;;;;;4972717;28;20114;-85
2021/07/13 07:06:48;;;;;;;37.85;27.83;;;19.40;99.90;;;;;;4973756;28;20034;-85
2021/07/13 07:09:13;;;;;;;35.65;25.88;;;19.40;99.90;;;;;;4973400;28;20043;-86
2021/07/13 07:11:39;;;;;;;33.22;25.15;;;19.40;99.90;;;;;;4974601;28;20055;-85
2021/07/13 07:14:04;;;;;;;34.28;24.60;;;19.40;99.90;;;;;;4970673;28;20039;-86
2021/07/13 07:16:30;;;;;;;33.28;25.45;;;19.40;99.90;;;;;;4978069;28;20102;-85
2021/07/13 07:18:55;;;;;;;32.10;24.23;;;19.40;99.90;;;;;;4978146;28;20035;-87
2021/07/13 07:21:21;;;;;;;33.35;24.92;;;19.40;99.90;;;;;;4979133;28;20457;-86
2021/07/13 07:23:47;;;;;;;31.15;23.70;;;19.40;99.90;;;;;;4974219;28;20035;-86
2021/07/13 07:26:15;;;;;;;29.95;22.77;;;19.50;99.90;;;;;;4982534;28;20125;-84
2021/07/13 07:28:41;;;;;;;32.28;24.42;;;19.50;99.90;;;;;;4971537;28;20034;-86
2021/07/13 07:31:07;;;;;;;28.48;23.13;;;19.60;99.90;;;;;;4965929;28;20043;-88
2021/07/13 07:33:32;;;;;;;30.30;22.85;;;19.60;99.90;;;;;;4995577;28;20030;-87
2021/07/13 07:35:58;;;;;;;32.53;22.88;;;19.60;99.90;;;;;;4981913;28;20027;-86
2021/07/13 07:38:24;;;;;;;32.22;23.75;;;19.70;99.90;;;;;;5017118;28;20035;-86
2021/07/13 07:40:49;;;;;;;31.52;23.60;;;19.70;99.90;;;;;;5007315;28;20042;-85
2021/07/13 07:43:16;;;;;;;31.23;23.30;;;19.70;99.90;;;;;;4998323;28;20031;-84
2021/07/13 07:45:41;;;;;;;31.88;23.02;;;19.80;99.90;;;;;;4993504;28;20022;-86
2021/07/13 07:48:07;;;;;;;29.95;23.73;;;19.80;99.90;;;;;;4994342;28;20082;-86
2021/07/13 07:50:32;;;;;;;30.90;23.05;;;19.90;99.90;;;;;;4978037;28;20090;-85
2021/07/13 07:52:58;;;;;;;30.92;22.70;;;19.90;99.90;;;;;;4994590;28;20045;-87
2021/07/13 07:55:26;;;;;;;27.40;20.77;;;19.90;99.90;;;;;;4994275;28;20038;-86
2021/07/13 07:57:52;;;;;;;28.20;20.88;;;20.00;99.90;;;;;;4983636;28;20031;-86
2021/07/13 08:00:21;;;;;;;30.50;22.23;;;20.00;99.90;;;;;;4993037;28;20069;-86
2021/07/13 08:02:47;;;;;;;34.67;24.23;;;20.00;99.90;;;;;;4992666;28;20054;-84
2021/07/13 08:05:16;;;;;;;28.80;21.50;;;20.00;99.90;;;;;;4973558;28;20086;-85
2021/07/13 08:07:43;;;;;;;27.77;21.73;;;20.00;99.90;;;;;;4989272;28;20042;-86
2021/07/13 08:10:10;;;;;;;28.23;21.52;;;20.10;99.90;;;;;;4992641;28;20033;-87
2021/07/13 08:12:36;;;;;;;28.58;21.13;;;20.10;99.90;;;;;;4993079;28;20400;-86
2021/07/13 08:15:03;;;;;;;27.35;21.35;;;20.20;99.90;;;;;;4992682;28;20033;-86
2021/07/13 08:17:29;;;;;;;29.20;21.67;;;20.20;99.90;;;;;;4977768;28;20043;-90
2021/07/13 08:19:54;;;;;;;30.27;22.98;;;20.20;99.90;;;;;;4977688;28;20101;-85
2021/07/13 08:22:20;;;;;;;28.55;21.80;;;20.20;99.90;;;;;;4992913;28;20125;-85
2021/07/13 08:24:47;;;;;;;28.30;21.23;;;20.20;99.90;;;;;;4973106;28;20063;-86
2021/07/13 08:27:12;;;;;;;28.35;21.90;;;20.20;99.90;;;;;;4967548;28;20026;-86
2021/07/13 08:29:38;;;;;;;29.48;22.02;;;20.20;99.90;;;;;;4992088;28;20058;-86
2021/07/13 08:32:05;;;;;;;27.38;21.60;;;20.20;99.90;;;;;;4977198;28;20520;-86
2021/07/13 08:34:33;;;;;;;27.63;21.92;;;20.20;99.90;;;;;;4993890;28;20077;-86
2021/07/13 08:36:58;;;;;;;31.13;22.55;;;20.20;99.90;;;;;;4995869;28;20057;-87
2021/07/13 08:39:24;;;;;;;31.30;23.20;;;20.20;99.90;;;;;;4995426;28;20485;-86
2021/07/13 08:41:50;;;;;;;27.45;21.88;;;20.20;99.90;;;;;;4983226;28;20532;-88
2021/07/13 08:44:16;;;;;;;27.65;21.05;;;20.20;99.90;;;;;;4983286;28;20031;-87
2021/07/13 08:46:43;;;;;;;26.50;20.48;;;20.30;99.90;;;;;;4992824;28;20026;-85
2021/07/13 08:49:11;;;;;;;26.92;20.23;;;20.50;99.90;;;;;;4978327;28;20116;-86
2021/07/13 08:51:37;;;;;;;28.67;20.80;;;20.50;99.90;;;;;;4993929;28;20093;-87
2021/07/13 08:54:07;;;;;;;25.75;20.60;;;20.60;99.90;;;;;;5001952;23;20058;-87
2021/07/13 08:56:34;;;;;;;27.73;21.55;;;20.70;99.90;;;;;;5018947;28;20033;-84
2021/07/13 08:59:01;;;;;;;27.30;20.58;;;20.80;99.90;;;;;;5019168;28;20034;-86
2021/07/13 09:01:31;;;;;;;25.00;19.42;;;20.80;99.90;;;;;;5010606;28;20045;-86
2021/07/13 09:04:01;;;;;;;23.23;18.23;;;20.90;99.90;;;;;;5004147;28;20026;-86
2021/07/13 09:06:29;;;;;;;25.45;20.00;;;21.10;99.90;;;;;;5002057;28;20034;-86
2021/07/13 09:08:59;;;;;;;24.90;19.80;;;21.30;99.90;;;;;;5019348;28;20046;-84
2021/07/13 09:11:24;;;;;;;20.88;17.30;;;21.50;99.90;;;;;;5013865;28;20042;-84
2021/07/13 09:13:59;;;;;;;19.75;15.98;;;21.60;99.90;;;;;;5023167;28;20034;-86
2021/07/13 09:16:30;;;;;;;18.90;16.17;;;21.70;99.90;;;;;;5007414;28;20151;-85
2021/07/13 09:18:59;;;;;;;21.45;17.13;;;21.90;99.90;;;;;;5001905;28;20018;-84
2021/07/13 09:21:34;;;;;;;21.77;17.67;;;21.90;99.90;;;;;;4987492;28;20069;-86
2021/07/13 09:24:16;;;;;;;20.30;16.85;;;21.90;99.90;;;;;;5026823;28;20066;-87
2021/07/13 09:26:56;;;;;;;20.48;17.58;;;21.90;99.90;;;;;;5021324;28;20034;-85
2021/07/13 09:29:34;;;;;;;19.88;16.80;;;21.90;99.90;;;;;;5032207;28;20097;-84
2021/07/13 09:32:19;;;;;;;18.25;15.07;;;22.00;99.90;;;;;;5018144;28;20080;-84
2021/07/13 09:35:01;;;;;;;19.05;15.52;;;21.90;99.90;;;;;;5016417;28;20542;-86
2021/07/13 09:37:32;;;;;;;18.15;15.00;;;21.90;99.90;;;;;;5017813;28;20049;-86
2021/07/13 09:40:03;;;;;;;17.92;15.00;;;21.90;99.90;;;;;;5026934;28;20021;-86
2021/07/13 09:42:31;;;;;;;17.08;14.63;;;21.90;99.90;;;;;;5016358;28;20069;-86
2021/07/13 09:45:18;;;;;;;18.85;15.23;;;21.90;99.90;;;;;;5009234;28;20042;-87
2021/07/13 09:47:44;;;;;;;16.17;13.90;;;21.90;99.90;;;;;;5028614;28;20057;-85
2021/07/13 09:50:12;;;;;;;17.40;15.38;;;21.90;99.90;;;;;;5027713;28;20040;-86
2021/07/13 09:52:38;;;;;;;17.85;15.77;;;21.90;99.90;;;;;;4988752;28;20488;-84
2021/07/13 09:55:33;;;;;;;18.48;15.75;;;21.90;99.90;;;;;;5016779;28;20062;-85
2021/07/13 09:58:16;;;;;;;18.83;16.83;;;22.00;99.90;;;;;;4982083;28;20084;-84
2021/07/13 10:00:45;;;;;;;17.50;14.38;;;22.00;99.90;;;;;;5020164;28;20053;-85
2021/07/13 10:03:14;;;;;;;18.60;15.93;;;22.10;99.90;;;;;;5036086;28;20029;-86
2021/07/13 10:05:40;;;;;;;19.90;16.60;;;22.20;99.90;;;;;;5019410;28;20117;-86
2021/07/13 10:08:07;;;;;;;18.70;16.40;;;22.20;99.90;;;;;;5018884;28;20045;-86
2021/07/13 10:10:36;;;;;;;19.13;15.88;;;22.30;99.90;;;;;;5022376;28;20048;-87
2021/07/13 10:13:02;;;;;;;20.45;16.23;;;22.30;99.90;;;;;;5035831;28;20056;-86
2021/07/13 10:15:28;;;;;;;21.45;19.02;;;22.30;99.90;;;;;;5018382;28;20100;-86
2021/07/13 10:17:55;;;;;;;20.20;17.83;;;22.30;99.90;;;;;;5011200;28;20034;-85
2021/07/13 10:20:23;;;;;;;20.38;18.17;;;22.20;99.90;;;;;;5008706;28;20030;-85
2021/07/13 10:22:50;;;;;;;19.17;17.05;;;22.20;99.90;;;;;;5016932;28;20034;-85
2021/07/13 10:25:16;;;;;;;19.88;17.77;;;22.10;99.90;;;;;;5014011;28;20171;-86
2021/07/13 10:27:49;;;;;;;20.52;17.30;;;22.10;99.90;;;;;;5008887;28;20476;-86
2021/07/13 10:30:17;;;;;;;18.42;15.27;;;22.10;99.90;;;;;;5023023;28;20538;-85
2021/07/13 10:32:44;;;;;;;19.55;15.77;;;22.10;99.90;;;;;;5015611;28;20042;-86
2021/07/13 10:35:24;;;;;;;17.40;15.50;;;22.10;99.90;;;;;;5021044;28;20099;-85
2021/07/13 10:38:20;;;;;;;17.20;14.77;;;22.10;99.90;;;;;;5017687;28;20048;-85
2021/07/13 10:40:47;;;;;;;17.70;15.82;;;22.10;99.90;;;;;;5028508;28;20037;-86
2021/07/13 10:43:16;;;;;;;17.10;13.95;;;22.00;99.90;;;;;;5027219;28;20064;-86
2021/07/13 10:45:42;;;;;;;18.85;15.80;;;21.90;99.90;;;;;;5021905;28;20084;-86
2021/07/13 10:48:21;;;;;;;18.33;16.30;;;21.90;99.90;;;;;;5002172;28;20057;-85
2021/07/13 10:50:49;;;;;;;17.88;15.98;;;21.90;99.90;;;;;;5016556;28;20040;-86
2021/07/13 10:53:29;;;;;;;16.73;14.93;;;21.80;99.90;;;;;;5031895;28;20076;-84
2021/07/13 10:55:54;;;;;;;18.95;16.15;;;21.90;99.90;;;;;;5017596;28;20050;-85
2021/07/13 10:58:26;;;;;;;17.27;15.30;;;21.90;99.90;;;;;;5016704;28;20435;-83
2021/07/13 11:01:01;;;;;;;19.40;14.88;;;21.90;99.90;;;;;;5016983;28;20030;-86
2021/07/13 11:03:31;;;;;;;15.95;14.25;;;21.90;99.90;;;;;;5029484;28;20041;-85
2021/07/13 11:05:58;;;;;;;16.00;14.20;;;22.00;99.90;;;;;;5017261;28;20069;-85
2021/07/13 11:08:39;;;;;;;16.95;15.13;;;22.10;99.90;;;;;;5027524;28;20026;-84
2021/07/13 11:11:25;;;;;;;17.33;15.00;;;22.20;99.90;;;;;;5015696;28;20561;-85
2021/07/13 11:14:07;;;;;;;16.88;15.00;;;22.20;99.90;;;;;;4985553;28;20064;-86
2021/07/13 11:16:35;;;;;;;16.38;14.68;;;22.30;99.90;;;;;;5012822;28;20044;-85
2021/07/13 11:19:17;;;;;;;16.60;14.80;;;22.40;99.90;;;;;;5016568;28;20064;-84
2021/07/13 11:21:47;;;;;;;18.58;16.58;;;22.40;99.90;;;;;;4993792;28;20502;-84
2021/07/13 11:24:16;;;;;;;15.98;14.27;;;22.40;99.90;;;;;;5008891;28;20086;-85
2021/07/13 11:26:46;;;;;;;19.52;17.10;;;22.40;99.90;;;;;;5016354;28;20404;-85
2021/07/13 11:29:17;;;;;;;17.50;15.63;;;22.30;99.90;;;;;;5022372;28;20036;-85
2021/07/13 11:31:45;;;;;;;15.90;14.23;;;22.30;99.90;;;;;;5027071;28;20045;-85
2021/07/13 11:34:14;;;;;;;17.65;15.25;;;22.30;99.90;;;;;;5022004;28;20022;-87
2021/07/13 11:36:41;;;;;;;17.33;15.52;;;22.30;99.90;;;;;;5007900;28;20033;-84
2021/07/13 11:39:11;;;;;;;17.27;15.45;;;22.30;99.90;;;;;;5003583;28;20029;-85
2021/07/13 11:41:37;;;;;;;16.10;14.40;;;22.20;99.90;;;;;;5034810;28;20033;-82
2021/07/13 11:44:06;;;;;;;17.30;15.50;;;22.30;99.90;;;;;;5021930;28;20103;-86
2021/07/13 11:46:34;;;;;;;17.27;15.48;;;22.30;99.90;;;;;;5014604;28;20040;-84
2021/07/13 11:49:08;;;;;;;15.48;13.85;;;22.40;99.90;;;;;;5032828;28;20487;-87
2021/07/13 11:51:37;;;;;;;14.88;13.32;;;22.50;99.90;;;;;;5036061;28;20499;-85
2021/07/13 11:54:13;;;;;;;14.65;13.15;;;22.60;99.90;;;;;;5023266;28;20117;-87
2021/07/13 11:56:43;;;;;;;15.02;13.43;;;22.70;99.90;;;;;;5030166;28;20056;-85
2021/07/13 11:59:09;;;;;;;14.32;12.82;;;22.80;99.90;;;;;;5036466;28;20064;-87
2021/07/13 12:01:36;;;;;;;16.73;15.02;;;22.90;99.90;;;;;;5029522;28;20065;-85
2021/07/13 12:04:07;;;;;;;15.10;13.50;;;23.00;99.90;;;;;;5023778;28;20085;-86
2021/07/13 12:06:34;;;;;;;17.75;15.88;;;23.10;99.90;;;;;;5015212;28;20034;-83
2021/07/13 12:09:11;;;;;;;16.73;14.90;;;23.10;99.90;;;;;;5014101;28;20069;-86
2021/07/13 12:11:40;;;;;;;16.25;14.65;;;23.10;99.90;;;;;;5028368;28;20075;-85
2021/07/13 12:14:10;;;;;;;21.23;19.02;;;23.20;99.90;;;;;;5026897;28;20038;-85
2021/07/13 12:16:37;;;;;;;20.13;18.02;;;23.30;99.90;;;;;;5018738;28;20088;-84
2021/07/13 12:19:11;;;;;;;19.52;17.45;;;23.30;99.90;;;;;;5019590;28;20026;-84
2021/07/13 12:21:41;;;;;;;19.98;17.83;;;23.50;99.90;;;;;;5012722;28;20033;-84
2021/07/13 12:24:12;;;;;;;20.92;18.73;;;23.60;99.90;;;;;;5010607;28;20041;-85
2021/07/13 12:26:39;;;;;;;18.23;16.38;;;23.60;99.90;;;;;;5015432;28;20038;-86
2021/07/13 12:29:33;;;;;;;17.60;15.63;;;23.60;99.90;;;;;;5019278;28;20029;-84
2021/07/13 12:31:59;;;;;;;;;;;23.60;99.90;;;;;;5005885;28;20046;-85
2021/07/13 12:34:41;;;;;;;18.38;16.33;;;23.50;99.90;;;;;;5007352;28;19913;-85
2021/07/13 12:37:27;;;;;;;19.10;17.05;;;23.60;99.90;;;;;;4998175;28;20037;-86